createdAt,value
2018-05-13T00:02:26.353Z,45.41
2018-05-13T00:04:53.089Z,45.38
2018-05-13T00:07:19.800Z,45.18
2018-05-13T00:09:46.462Z,45.38
2018-05-13T00:12:13.170Z,45.10
2018-05-13T00:14:39.873Z,45.44
2018-05-13T00:17:06.611Z,45.24
2018-05-13T00:19:33.237Z,45.31
2018-05-13T00:21:59.901Z,45.30
2018-05-13T00:24:26.696Z,45.42
2018-05-13T00:26:53.327Z,45.27
2018-05-13T00:29:20.010Z,45.24
2018-05-13T00:31:46.783Z,45.46
2018-05-13T00:34:13.484Z,45.55
2018-05-13T00:36:40.140Z,45.41
2018-05-13T00:39:06.812Z,45.42
2018-05-13T00:41:33.480Z,45.52
2018-05-13T00:44:00.151Z,45.18
2018-05-13T00:46:26.844Z,45.41
2018-05-13T00:48:53.519Z,45.38
2018-05-13T00:51:20.217Z,45.26
2018-05-13T00:53:46.912Z,45.53
2018-05-13T00:56:13.624Z,45.27
2018-05-13T00:58:40.258Z,45.34
2018-05-13T01:01:06.932Z,45.48
2018-05-13T01:03:33.677Z,45.62
2018-05-13T01:06:00.312Z,45.30
2018-05-13T01:08:27.046Z,45.27
2018-05-13T01:10:53.719Z,45.23
2018-05-13T01:13:20.347Z,45.29
2018-05-13T01:15:47.009Z,45.50
2018-05-13T01:18:13.745Z,45.40
2018-05-13T01:20:40.409Z,45.31
2018-05-13T01:23:07.039Z,45.41
2018-05-13T01:25:33.714Z,45.55
2018-05-13T01:28:00.483Z,45.23
2018-05-13T01:30:27.192Z,45.03
2018-05-13T01:32:53.893Z,45.24
2018-05-13T01:35:20.522Z,45.26
2018-05-13T01:37:47.227Z,45.57
2018-05-13T01:40:13.929Z,45.35
2018-05-13T01:42:40.648Z,45.32
2018-05-13T01:45:07.288Z,45.29
2018-05-13T01:47:34.039Z,45.16
2018-05-13T01:50:00.696Z,45.20
2018-05-13T01:52:27.360Z,45.20
2018-05-13T01:54:54.002Z,45.14
2018-05-13T01:57:20.682Z,45.14
2018-05-13T01:59:47.383Z,45.24
2018-05-13T02:02:14.081Z,45.26
2018-05-13T02:04:40.752Z,45.18
2018-05-13T02:07:07.419Z,45.04
2018-05-13T02:09:34.081Z,45.21
2018-05-13T02:12:00.798Z,45.09
2018-05-13T02:14:27.488Z,45.01
2018-05-13T02:16:54.195Z,45.02
2018-05-13T02:19:20.909Z,45.09
2018-05-13T02:21:47.535Z,45.15
2018-05-13T02:24:14.281Z,45.25
2018-05-13T02:26:40.915Z,45.11
2018-05-13T02:29:07.597Z,45.09
2018-05-13T02:31:34.250Z,45.14
2018-05-13T02:34:00.949Z,45.15
2018-05-13T02:36:27.676Z,44.89
2018-05-13T02:38:54.325Z,44.96
2018-05-13T02:41:21.009Z,45.00
2018-05-13T02:43:47.657Z,44.90
2018-05-13T02:46:14.392Z,44.98
2018-05-13T02:48:41.096Z,44.90
2018-05-13T02:51:07.747Z,45.04
2018-05-13T02:53:34.411Z,45.08
2018-05-13T02:56:01.011Z,44.72
2018-05-13T02:58:27.661Z,45.17
2018-05-13T03:00:54.596Z,44.91
2018-05-13T03:03:21.284Z,45.05
2018-05-13T03:05:47.953Z,44.89
2018-05-13T03:08:14.557Z,44.90
2018-05-13T03:10:41.241Z,44.84
2018-05-13T03:13:07.995Z,44.90
2018-05-13T03:15:34.684Z,44.77
2018-05-13T03:18:01.321Z,44.58
2018-05-13T03:20:27.952Z,44.54
2018-05-13T03:22:54.563Z,44.65
2018-05-13T03:25:21.271Z,44.42
2018-05-13T03:27:47.899Z,44.42
2018-05-13T03:30:14.536Z,44.63
2018-05-13T03:32:41.175Z,44.54
2018-05-13T03:35:07.805Z,44.16
2018-05-13T03:37:34.416Z,44.30
2018-05-13T03:40:01.056Z,44.28
2018-05-13T03:42:27.768Z,44.54
2018-05-13T03:44:54.401Z,44.48
2018-05-13T03:47:21.098Z,44.31
2018-05-13T03:49:47.738Z,44.29
2018-05-13T03:52:14.369Z,44.15
2018-05-13T03:54:40.980Z,44.07
2018-05-13T03:57:07.654Z,43.97
2018-05-13T03:59:34.354Z,43.73
2018-05-13T04:02:00.950Z,43.35
2018-05-13T04:04:27.629Z,43.06
2018-05-13T04:06:54.288Z,42.75
2018-05-13T04:09:20.934Z,42.92
2018-05-13T04:11:47.614Z,42.58
2018-05-13T04:14:14.249Z,42.21
2018-05-13T04:16:40.911Z,41.88
2018-05-13T04:19:07.521Z,41.67
2018-05-13T04:21:34.197Z,41.49
2018-05-13T04:24:00.869Z,41.81
2018-05-13T04:26:27.554Z,41.91
2018-05-13T04:28:54.212Z,41.98
2018-05-13T04:31:20.844Z,42.00
2018-05-13T04:33:47.490Z,41.89
2018-05-13T04:36:14.195Z,41.80
2018-05-13T04:38:40.798Z,41.73
2018-05-13T04:41:07.515Z,41.66
2018-05-13T04:43:34.156Z,41.63
2018-05-13T04:46:00.829Z,41.64
2018-05-13T04:48:27.510Z,41.71
2018-05-13T04:50:54.113Z,41.68
2018-05-13T04:53:20.751Z,41.79
2018-05-13T04:55:47.427Z,41.79
2018-05-13T04:58:14.057Z,41.73
2018-05-13T05:00:40.704Z,41.63
2018-05-13T05:03:07.307Z,41.70
2018-05-13T05:05:33.974Z,41.63
2018-05-13T05:08:00.616Z,41.73
2018-05-13T05:10:27.325Z,41.52
2018-05-13T05:12:53.925Z,41.59
2018-05-13T05:15:20.603Z,41.57
2018-05-13T05:17:47.266Z,41.48
2018-05-13T05:20:13.874Z,41.65
2018-05-13T05:22:41.908Z,41.55
2018-05-13T05:25:07.198Z,41.61
2018-05-13T05:27:33.858Z,41.55
2018-05-13T05:30:00.463Z,41.56
2018-05-13T05:32:27.128Z,41.89
2018-05-13T05:34:53.810Z,41.95
2018-05-13T05:37:20.450Z,41.89
2018-05-13T05:39:47.200Z,41.94
2018-05-13T05:42:13.874Z,42.03
2018-05-13T05:44:40.553Z,42.03
2018-05-13T05:47:07.184Z,42.05
2018-05-13T05:49:33.832Z,42.05
2018-05-13T05:52:00.495Z,41.97
2018-05-13T05:54:27.169Z,42.24
2018-05-13T05:56:53.808Z,42.21
2018-05-13T05:59:20.478Z,42.28
2018-05-13T06:01:47.122Z,42.37
2018-05-13T06:04:13.750Z,42.30
2018-05-13T06:06:40.467Z,42.18
2018-05-13T06:09:07.111Z,42.24
2018-05-13T06:11:33.708Z,42.13
2018-05-13T06:14:00.361Z,42.20
2018-05-13T06:16:27.086Z,42.31
2018-05-13T06:18:53.780Z,42.12
2018-05-13T06:23:47.119Z,41.90
2018-05-13T06:26:13.859Z,41.85
2018-05-13T06:28:40.460Z,41.92
2018-05-13T06:31:07.096Z,41.79
2018-05-13T06:33:33.781Z,41.59
2018-05-13T06:36:00.416Z,41.43
2018-05-13T06:38:27.088Z,41.63
2018-05-13T06:40:53.735Z,41.28
2018-05-13T06:43:20.410Z,41.14
2018-05-13T06:45:47.127Z,40.98
2018-05-13T06:48:13.770Z,41.00
2018-05-13T06:50:40.418Z,40.93
2018-05-13T06:53:09.872Z,40.79
2018-05-13T06:55:36.510Z,40.79
2018-05-13T06:58:03.141Z,40.81
2018-05-13T07:00:29.776Z,41.10
2018-05-13T07:02:56.409Z,40.97
2018-05-13T07:05:23.032Z,40.95
2018-05-13T07:07:49.646Z,40.87
2018-05-13T07:10:16.320Z,40.93
2018-05-13T07:12:42.933Z,40.81
2018-05-13T07:15:09.560Z,41.12
2018-05-13T07:17:36.195Z,40.95
2018-05-13T07:20:02.835Z,40.96
2018-05-13T07:22:29.503Z,40.83
2018-05-13T07:24:56.131Z,40.67
2018-05-13T07:27:22.862Z,40.67
2018-05-13T07:29:49.530Z,40.58
2018-05-13T07:32:16.110Z,40.79
2018-05-13T07:34:42.749Z,40.65
2018-05-13T07:37:09.430Z,40.47
2018-05-13T07:39:36.054Z,40.35
2018-05-13T07:42:02.658Z,40.28
2018-05-13T07:44:29.323Z,40.33
2018-05-13T07:46:55.942Z,40.34
2018-05-13T07:49:22.622Z,40.20
2018-05-13T07:51:49.219Z,40.03
2018-05-13T07:54:15.850Z,39.87
2018-05-13T07:56:42.494Z,40.08
2018-05-13T07:59:09.166Z,39.92
2018-05-13T08:01:35.890Z,39.77
2018-05-13T08:04:02.494Z,39.76
2018-05-13T08:06:29.131Z,39.63
2018-05-13T08:08:55.806Z,39.96
2018-05-13T08:11:22.402Z,39.75
2018-05-13T08:13:49.040Z,39.63
2018-05-13T08:16:15.822Z,39.51
2018-05-13T08:18:42.453Z,39.43
2018-05-13T08:21:09.096Z,39.76
2018-05-13T08:23:35.729Z,39.66
2018-05-13T08:26:02.370Z,39.45
2018-05-13T08:28:29.033Z,39.40
2018-05-13T08:30:55.674Z,39.34
2018-05-13T08:33:22.265Z,39.58
2018-05-13T08:35:48.901Z,39.48
2018-05-13T08:38:15.565Z,39.41
2018-05-13T08:40:42.203Z,39.24
2018-05-13T08:43:08.832Z,39.23
2018-05-13T08:45:35.442Z,39.39
2018-05-13T08:48:02.112Z,39.52
2018-05-13T08:50:28.762Z,39.38
2018-05-13T08:52:55.355Z,39.33
2018-05-13T08:55:21.992Z,39.29
2018-05-13T08:57:48.640Z,39.26
2018-05-13T09:00:15.270Z,39.53
2018-05-13T09:02:41.951Z,39.58
2018-05-13T09:05:08.587Z,39.45
2018-05-13T09:07:35.198Z,39.41
2018-05-13T09:10:01.840Z,39.40
2018-05-13T09:12:28.464Z,39.33
2018-05-13T09:14:55.142Z,39.56
2018-05-13T09:17:21.777Z,39.50
2018-05-13T09:19:48.416Z,39.39
2018-05-13T09:22:15.052Z,39.37
2018-05-13T09:24:41.679Z,39.37
2018-05-13T09:27:08.308Z,39.33
2018-05-13T09:29:34.954Z,39.64
2018-05-13T09:32:01.576Z,39.56
2018-05-13T09:34:28.257Z,39.55
2018-05-13T09:36:54.849Z,39.51
2018-05-13T09:39:21.481Z,39.50
2018-05-13T09:41:48.152Z,39.54
2018-05-13T09:44:14.801Z,39.72
2018-05-13T09:46:41.468Z,39.88
2018-05-13T09:49:08.093Z,39.70
2018-05-13T09:51:34.701Z,39.66
2018-05-13T09:54:01.363Z,39.60
2018-05-13T09:56:28.000Z,39.58
2018-05-13T09:58:54.633Z,39.62
2018-05-13T10:01:21.237Z,39.91
2018-05-13T10:03:47.882Z,39.78
2018-05-13T10:06:14.524Z,39.65
2018-05-13T10:08:41.195Z,39.60
2018-05-13T10:11:07.795Z,39.61
2018-05-13T10:13:34.471Z,39.58
2018-05-13T10:16:01.071Z,39.72
2018-05-13T10:18:27.745Z,39.75
2018-05-13T10:20:54.373Z,39.64
2018-05-13T10:23:20.982Z,39.59
2018-05-13T10:25:47.672Z,39.43
2018-05-13T10:28:14.303Z,39.47
2018-05-13T10:30:40.940Z,39.80
2018-05-13T10:33:07.551Z,39.67
2018-05-13T10:35:34.476Z,39.52
2018-05-13T10:38:01.066Z,39.51
2018-05-13T10:40:27.745Z,39.48
2018-05-13T10:42:54.382Z,39.40
2018-05-13T10:45:21.018Z,39.67
2018-05-13T10:47:47.648Z,39.61
2018-05-13T10:50:14.283Z,39.41
2018-05-13T10:52:40.921Z,39.16
2018-05-13T10:55:07.589Z,39.08
2018-05-13T10:57:34.190Z,38.97
2018-05-13T11:00:00.914Z,39.24
2018-05-13T11:02:27.521Z,39.15
2018-05-13T11:04:54.149Z,39.01
2018-05-13T11:07:20.811Z,38.86
2018-05-13T11:09:47.418Z,38.80
2018-05-13T11:12:14.097Z,38.54
2018-05-13T11:14:40.736Z,38.92
2018-05-13T11:17:07.408Z,38.73
2018-05-13T11:19:34.052Z,38.54
2018-05-13T11:22:00.702Z,38.36
2018-05-13T11:24:27.338Z,38.32
2018-05-13T11:26:54.020Z,38.23
2018-05-13T11:29:20.640Z,38.52
2018-05-13T11:31:47.267Z,38.43
2018-05-13T11:34:16.792Z,38.28
2018-05-13T11:36:43.530Z,38.08
2018-05-13T11:39:10.126Z,38.26
2018-05-13T11:41:36.798Z,38.10
2018-05-13T11:44:03.431Z,38.32
2018-05-13T11:46:30.115Z,38.28
2018-05-13T11:48:56.796Z,38.20
2018-05-13T11:51:23.389Z,38.18
2018-05-13T11:53:50.084Z,38.11
2018-05-13T11:56:16.756Z,38.09
2018-05-13T11:58:43.353Z,38.04
2018-05-13T12:01:10.036Z,38.41
2018-05-13T12:03:36.649Z,38.32
2018-05-13T12:06:03.287Z,38.52
2018-05-13T12:08:29.950Z,38.60
2018-05-13T12:10:56.559Z,38.76
2018-05-13T12:13:23.190Z,38.97
2018-05-13T12:15:49.825Z,39.05
2018-05-13T12:18:16.463Z,39.24
2018-05-13T12:20:43.145Z,39.40
2018-05-13T12:23:09.855Z,39.55
2018-05-13T12:25:36.484Z,39.80
2018-05-13T12:28:03.087Z,39.73
2018-05-13T12:30:29.737Z,39.92
2018-05-13T12:32:56.378Z,39.92
2018-05-13T12:35:23.071Z,39.88
2018-05-13T12:37:49.720Z,39.96
2018-05-13T12:40:16.352Z,39.99
2018-05-13T12:42:42.955Z,39.96
2018-05-13T12:45:09.632Z,39.94
2018-05-13T12:47:36.362Z,40.00
2018-05-13T12:50:02.968Z,40.18
2018-05-13T12:52:29.611Z,40.09
2018-05-13T12:54:56.257Z,40.12
2018-05-13T12:57:22.930Z,40.11
2018-05-13T12:59:50.826Z,40.15
2018-05-13T13:02:16.247Z,40.07
2018-05-13T13:04:42.871Z,40.10
2018-05-13T13:07:09.507Z,40.06
2018-05-13T13:09:36.169Z,39.99
2018-05-13T13:12:02.793Z,39.93
2018-05-13T13:14:29.448Z,40.03
2018-05-13T13:16:56.084Z,40.08
2018-05-13T13:19:22.777Z,40.01
2018-05-13T13:21:49.450Z,40.11
2018-05-13T13:24:16.054Z,40.07
2018-05-13T13:26:42.743Z,40.01
2018-05-13T13:29:09.371Z,40.05
2018-05-13T13:31:35.964Z,39.94
2018-05-13T13:34:02.637Z,40.04
2018-05-13T13:36:29.247Z,39.92
2018-05-13T13:38:55.899Z,40.06
2018-05-13T13:41:22.668Z,40.02
2018-05-13T13:43:49.305Z,39.97
2018-05-13T13:46:15.981Z,39.89
2018-05-13T13:48:42.609Z,39.87
2018-05-13T13:51:09.289Z,39.79
2018-05-13T13:53:35.898Z,39.77
2018-05-13T13:56:02.624Z,39.81
2018-05-13T13:58:29.298Z,39.86
2018-05-13T14:00:56.013Z,39.89
2018-05-13T14:03:22.695Z,40.02
2018-05-13T14:05:49.294Z,39.88
2018-05-13T14:08:16.013Z,39.91
2018-05-13T14:10:42.616Z,39.84
2018-05-13T14:13:09.245Z,39.82
2018-05-13T14:15:35.894Z,39.86
2018-05-13T14:18:02.559Z,39.81
2018-05-13T14:20:29.357Z,40.01
2018-05-13T14:22:55.913Z,39.94
2018-05-13T14:25:22.550Z,40.02
2018-05-13T14:27:49.228Z,39.96
2018-05-13T14:30:15.839Z,39.96
2018-05-13T14:32:42.541Z,39.98
2018-05-13T14:35:09.179Z,39.94
2018-05-13T14:37:35.791Z,40.01
2018-05-13T14:40:02.464Z,40.07
2018-05-13T14:42:29.202Z,40.03
2018-05-13T14:44:55.840Z,39.98
2018-05-13T14:47:22.526Z,40.31
2018-05-13T14:49:49.156Z,40.19
2018-05-13T14:52:15.871Z,40.15
2018-05-13T14:54:42.479Z,40.19
2018-05-13T14:57:09.143Z,40.17
2018-05-13T14:59:35.751Z,40.17
2018-05-13T15:02:02.524Z,40.15
2018-05-13T15:04:29.163Z,40.12
2018-05-13T15:06:55.758Z,40.17
2018-05-13T15:09:22.400Z,40.17
2018-05-13T15:11:49.068Z,40.08
2018-05-13T15:14:15.710Z,40.13
2018-05-13T15:16:42.331Z,40.07
2018-05-13T15:19:08.982Z,40.08
2018-05-13T15:21:35.654Z,40.22
2018-05-13T15:24:02.298Z,40.18
2018-05-13T15:26:28.936Z,40.10
2018-05-13T15:28:55.688Z,40.00
2018-05-13T15:31:22.325Z,40.07
2018-05-13T15:33:49.000Z,40.04
2018-05-13T15:36:15.633Z,40.04
2018-05-13T15:38:42.341Z,39.95
2018-05-13T15:41:08.979Z,40.01
2018-05-13T15:43:35.611Z,40.02
2018-05-13T15:46:02.285Z,39.94
2018-05-13T15:48:29.028Z,39.97
2018-05-13T15:50:55.662Z,39.91
2018-05-13T15:53:22.338Z,39.93
2018-05-13T15:55:48.969Z,40.12
2018-05-13T15:58:15.615Z,40.19
2018-05-13T16:00:42.295Z,40.03
2018-05-13T16:03:08.919Z,40.05
2018-05-13T16:05:35.552Z,40.05
2018-05-13T16:08:02.189Z,40.05
2018-05-13T16:10:28.784Z,40.04
2018-05-13T16:12:55.539Z,40.09
2018-05-13T16:15:22.140Z,40.10
2018-05-13T16:17:48.784Z,40.19
2018-05-13T16:20:15.468Z,40.22
2018-05-13T16:22:42.110Z,40.29
2018-05-13T16:25:08.741Z,40.44
2018-05-13T16:27:35.412Z,40.43
2018-05-13T16:30:02.075Z,40.49
2018-05-13T16:32:28.723Z,40.58
2018-05-13T16:34:55.395Z,40.60
2018-05-13T16:37:24.067Z,40.71
2018-05-13T16:39:48.670Z,40.72
2018-05-13T16:42:15.297Z,40.82
2018-05-13T16:44:42.012Z,40.83
2018-05-13T16:47:08.624Z,41.05
2018-05-13T16:49:35.284Z,40.99
2018-05-13T16:52:01.965Z,40.83
2018-05-13T16:54:28.602Z,40.85
2018-05-13T16:56:55.235Z,40.97
2018-05-13T16:59:21.942Z,40.94
2018-05-13T17:01:48.510Z,40.97
2018-05-13T17:04:15.180Z,40.90
2018-05-13T17:06:41.816Z,40.85
2018-05-13T17:09:08.528Z,40.87
2018-05-13T17:11:35.167Z,40.89
2018-05-13T17:14:01.880Z,40.84
2018-05-13T17:16:28.485Z,40.89
2018-05-13T17:18:55.149Z,40.88
2018-05-13T17:21:21.837Z,40.93
2018-05-13T17:23:48.481Z,40.95
2018-05-13T17:26:15.118Z,40.94
2018-05-13T17:28:41.746Z,40.92
2018-05-13T17:31:08.390Z,41.01
2018-05-13T17:33:35.026Z,41.10
2018-05-13T17:36:01.710Z,41.06
2018-05-13T17:38:28.338Z,41.17
2018-05-13T17:40:54.985Z,41.19
2018-05-13T17:43:21.699Z,41.18
2018-05-13T17:45:48.375Z,41.28
2018-05-13T17:48:14.989Z,41.44
2018-05-13T17:50:41.671Z,41.30
2018-05-13T17:53:08.307Z,41.48
2018-05-13T17:55:34.945Z,41.46
2018-05-13T17:58:01.624Z,41.63
2018-05-13T18:00:28.287Z,41.68
2018-05-13T18:02:54.939Z,41.62
2018-05-13T18:05:21.570Z,41.62
2018-05-13T18:07:48.207Z,41.80
2018-05-13T18:10:14.809Z,41.88
2018-05-13T18:12:41.483Z,42.09
2018-05-13T18:15:08.154Z,41.94
2018-05-13T18:17:34.829Z,42.06
2018-05-13T18:20:01.466Z,41.93
2018-05-13T18:22:28.183Z,42.07
2018-05-13T18:24:54.828Z,41.99
2018-05-13T18:27:21.445Z,42.14
2018-05-13T18:29:48.089Z,42.13
2018-05-13T18:32:14.732Z,42.15
2018-05-13T18:34:41.337Z,42.23
2018-05-13T18:37:07.967Z,42.30
2018-05-13T18:39:34.643Z,42.32
2018-05-13T18:42:01.282Z,42.45
2018-05-13T18:44:28.010Z,42.57
2018-05-13T18:46:54.598Z,42.64
2018-05-13T18:49:21.295Z,42.67
2018-05-13T18:51:47.927Z,42.73
2018-05-13T18:54:14.526Z,42.75
2018-05-13T18:56:41.206Z,42.79
2018-05-13T18:59:08.001Z,42.70
2018-05-13T19:01:34.644Z,42.77
2018-05-13T19:04:01.247Z,42.86
2018-05-13T19:06:27.949Z,42.92
2018-05-13T19:08:54.583Z,42.99
2018-05-13T19:11:21.217Z,42.82
2018-05-13T19:13:47.855Z,43.10
2018-05-13T19:16:14.493Z,42.94
2018-05-13T19:18:41.205Z,43.05
2018-05-13T19:21:07.832Z,43.08
2018-05-13T19:23:34.430Z,43.10
2018-05-13T19:26:01.088Z,43.14
2018-05-13T19:28:27.749Z,43.08
2018-05-13T19:30:54.380Z,42.99
2018-05-13T19:33:21.098Z,43.15
2018-05-13T19:35:47.734Z,43.19
2018-05-13T19:38:14.405Z,43.24
2018-05-13T19:40:41.080Z,43.09
2018-05-13T19:43:07.685Z,43.16
2018-05-13T19:45:34.353Z,43.29
2018-05-13T19:48:01.036Z,43.24
2018-05-13T19:50:27.679Z,43.11
2018-05-13T19:52:54.319Z,43.07
2018-05-13T19:55:20.972Z,43.15
2018-05-13T19:57:47.611Z,43.27
2018-05-13T20:00:14.293Z,43.23
2018-05-13T20:02:40.935Z,43.07
2018-05-13T20:05:07.537Z,43.34
2018-05-13T20:07:34.207Z,43.23
2018-05-13T20:10:00.915Z,43.33
2018-05-13T20:12:27.506Z,43.25
2018-05-13T20:14:54.143Z,43.22
2018-05-13T20:17:20.781Z,43.12
2018-05-13T20:19:47.469Z,43.34
2018-05-13T20:22:14.140Z,43.21
2018-05-13T20:24:40.822Z,43.39
2018-05-13T20:27:07.459Z,43.20
2018-05-13T20:29:34.105Z,43.38
2018-05-13T20:32:00.739Z,43.48
2018-05-13T20:34:27.382Z,43.35
2018-05-13T20:36:54.020Z,43.35
2018-05-13T20:39:20.719Z,43.38
2018-05-13T20:41:47.387Z,43.29
2018-05-13T20:44:13.997Z,43.34
2018-05-13T20:46:40.626Z,43.38
2018-05-13T20:49:07.278Z,43.35
2018-05-13T20:51:33.959Z,43.29
2018-05-13T20:54:00.586Z,43.27
2018-05-13T20:56:27.262Z,43.43
2018-05-13T20:58:53.893Z,43.32
2018-05-13T21:01:20.570Z,43.22
2018-05-13T21:03:47.202Z,43.20
2018-05-13T21:06:13.933Z,43.14
2018-05-13T21:08:40.559Z,43.20
2018-05-13T21:11:07.462Z,43.29
2018-05-13T21:13:34.134Z,43.22
2018-05-13T21:18:27.401Z,43.25
2018-05-13T21:20:54.049Z,43.22
2018-05-13T21:23:20.709Z,43.38
2018-05-13T21:25:47.380Z,43.20
2018-05-13T21:28:14.046Z,43.11
2018-05-13T21:30:40.703Z,43.28
2018-05-13T21:33:07.411Z,43.36
2018-05-13T21:35:34.076Z,43.32
2018-05-13T21:38:00.822Z,43.25
2018-05-13T21:40:27.443Z,43.22
2018-05-13T21:42:54.153Z,43.17
2018-05-13T21:45:20.789Z,43.34
2018-05-13T21:47:47.609Z,43.15
2018-05-13T21:50:14.292Z,43.24
2018-05-13T21:52:41.006Z,43.18
2018-05-13T21:55:07.644Z,43.21
2018-05-13T21:57:34.359Z,43.18
2018-05-13T22:00:01.059Z,43.20
2018-05-13T22:02:27.701Z,43.01
2018-05-13T22:04:54.377Z,43.05
2018-05-13T22:07:21.245Z,43.18
2018-05-13T22:09:47.707Z,43.23
2018-05-13T22:12:14.374Z,43.26
2018-05-13T22:14:41.090Z,43.06
2018-05-13T22:17:07.720Z,43.08
2018-05-13T22:19:34.558Z,42.92
2018-05-13T22:22:01.220Z,43.07
2018-05-13T22:24:27.881Z,43.08
2018-05-13T22:26:54.591Z,43.12
2018-05-13T22:29:21.251Z,43.07
2018-05-13T22:31:47.925Z,43.03
2018-05-13T22:34:14.625Z,42.96
2018-05-13T22:36:41.259Z,42.95
2018-05-13T22:39:07.956Z,42.96
2018-05-13T22:41:34.670Z,42.96
2018-05-13T22:44:01.303Z,43.04
2018-05-13T22:46:28.057Z,43.07
2018-05-13T22:48:54.720Z,42.98
2018-05-13T22:51:21.353Z,42.95
2018-05-13T22:53:48.034Z,42.88
2018-05-13T22:56:14.695Z,42.93
2018-05-13T22:58:41.497Z,42.85
2018-05-13T23:01:11.025Z,42.94
2018-05-13T23:03:37.773Z,42.98
2018-05-13T23:06:04.418Z,43.03
2018-05-13T23:08:31.118Z,43.00
2018-05-13T23:10:57.833Z,43.02
2018-05-13T23:13:24.498Z,42.91
2018-05-13T23:15:51.168Z,43.12
2018-05-13T23:18:17.848Z,43.04
2018-05-13T23:20:44.559Z,42.99
2018-05-13T23:23:11.198Z,43.00
2018-05-13T23:25:37.897Z,43.16
2018-05-13T23:28:04.536Z,43.11
2018-05-13T23:30:31.280Z,43.07
2018-05-13T23:32:57.950Z,43.28
2018-05-13T23:35:24.658Z,43.11
2018-05-13T23:37:51.384Z,43.10
2018-05-13T23:40:18.083Z,43.34
2018-05-13T23:42:44.709Z,43.30
2018-05-13T23:45:11.460Z,43.17
2018-05-13T23:47:38.093Z,43.20
2018-05-13T23:50:04.801Z,43.19
2018-05-13T23:52:31.466Z,43.32
2018-05-13T23:54:58.268Z,43.23
2018-05-13T23:57:24.963Z,43.12
2018-05-13T23:59:51.650Z,43.38
